Terminal Aerodrome Forecast
Issued by NWS Duluth, MN

Home | Current Version | Previous Version | Text Only | Print | Product List | Glossary On
Versions: 1 2 3 4 5 6 7 8 9 10 11 12 13 14 15 16 17 18 19 20 21 22 23 24
000
FTUS43 KDLH 031300 AAB
TAFINL
TAF AMD
KINL 031353Z 0314/0412 29012G18KT 6SM -SN OVC015
      TEMPO 0314/0316 1 1/2SM -SN BLSN BKN015
     FM031800 30016G26KT 6SM BLSN OVC035
     FM040500 28012KT P6SM SKC=

USA.gov is the U.S. government's official web portal to all federal, state and local government web resources and services.